Terminal Aerodrome Forecast
Issued by NWS

Home | Current Version | Previous Version | Text Only | Print | Product List | Glossary On
Versions: 1 2 3 4 5 6 7 8 9 10 11 12 13 14 15 16 17 18 19 20 21 22 23
499
FTUS41 KILN 241746 CCA
TAFLCK
TAF COR
KLCK 241746Z 2418/2518 30008KT P6SM OVC010
     FM242300 28006KT P6SM BKN020
     FM250500 21004KT P6SM SCT020 BKN035
     FM250700 20004KT P6SM BKN090
     FM251300 17008KT P6SM BKN024
     FM251700 18012G22KT P6SM BKN018
      AMD NOT SKED=

USA.gov is the U.S. government's official web portal to all federal, state and local government web resources and services.